sensor_id;sensor_type;location;lat;lon;timestamp;temperature;humidity
9371;DHT22;4725;48.384;8.984;2023-02-01T00:00:57;2.10;99.90
9371;DHT22;4725;48.384;8.984;2023-02-01T00:03:24;2.10;99.90
9371;DHT22;4725;48.384;8.984;2023-02-01T00:05:55;2.00;99.90
9371;DHT22;4725;48.384;8.984;2023-02-01T00:08:22;2.00;99.90
9371;DHT22;4725;48.384;8.984;2023-02-01T00:10:58;2.00;99.90
9371;DHT22;4725;48.384;8.984;2023-02-01T00:13:28;2.00;99.90
9371;DHT22;4725;48.384;8.984;2023-02-01T00:16:02;2.00;99.90
9371;DHT22;4725;48.384;8.984;2023-02-01T00:18:29;2.10;99.90
9371;DHT22;4725;48.384;8.984;2023-02-01T00:20:56;2.10;99.90
9371;DHT22;4725;48.384;8.984;2023-02-01T00:23:23;2.10;99.90
9371;DHT22;4725;48.384;8.984;2023-02-01T00:25:50;2.00;99.90
9371;DHT22;4725;48.384;8.984;2023-02-01T00:28:17;2.20;99.90
9371;DHT22;4725;48.384;8.984;2023-02-01T00:30:45;2.20;99.90
9371;DHT22;4725;48.384;8.984;2023-02-01T00:33:12;2.20;99.90
9371;DHT22;4725;48.384;8.984;2023-02-01T00:35:39;2.20;99.90
9371;DHT22;4725;48.384;8.984;2023-02-01T00:38:06;2.20;99.90
9371;DHT22;4725;48.384;8.984;2023-02-01T00:40:33;2.10;99.90
9371;DHT22;4725;48.384;8.984;2023-02-01T00:43:00;2.20;99.90
9371;DHT22;4725;48.384;8.984;2023-02-01T00:45:27;2.20;99.90
9371;DHT22;4725;48.384;8.984;2023-02-01T00:47:55;2.30;99.90
9371;DHT22;4725;48.384;8.984;2023-02-01T00:50:22;2.40;99.90
9371;DHT22;4725;48.384;8.984;2023-02-01T00:52:49;2.40;99.90
9371;DHT22;4725;48.384;8.984;2023-02-01T00:55:16;2.40;99.90
9371;DHT22;4725;48.384;8.984;2023-02-01T00:57:43;2.30;99.90
9371;DHT22;4725;48.384;8.984;2023-02-01T01:00:11;2.40;99.90
9371;DHT22;4725;48.384;8.984;2023-02-01T01:02:38;2.30;99.90
9371;DHT22;4725;48.384;8.984;2023-02-01T01:05:06;2.40;99.90
9371;DHT22;4725;48.384;8.984;2023-02-01T01:07:33;2.40;99.90
9371;DHT22;4725;48.384;8.984;2023-02-01T01:10:00;2.40;99.90
9371;DHT22;4725;48.384;8.984;2023-02-01T01:12:27;2.30;99.90
9371;DHT22;4725;48.384;8.984;2023-02-01T01:14:54;2.30;99.90
9371;DHT22;4725;48.384;8.984;2023-02-01T01:17:21;2.40;99.90
9371;DHT22;4725;48.384;8.984;2023-02-01T01:19:48;1.20;99.90
9371;DHT22;4725;48.384;8.984;2023-02-01T01:22:16;2.40;99.90
9371;DHT22;4725;48.384;8.984;2023-02-01T01:24:43;2.30;99.90
9371;DHT22;4725;48.384;8.984;2023-02-01T01:27:10;2.40;99.90
9371;DHT22;4725;48.384;8.984;2023-02-01T01:29:37;2.40;99.90
9371;DHT22;4725;48.384;8.984;2023-02-01T01:32:04;2.50;99.90
9371;DHT22;4725;48.384;8.984;2023-02-01T01:34:31;2.40;99.90
9371;DHT22;4725;48.384;8.984;2023-02-01T01:36:57;5.20;99.90
9371;DHT22;4725;48.384;8.984;2023-02-01T01:39:26;2.40;99.90
9371;DHT22;4725;48.384;8.984;2023-02-01T01:41:53;2.40;99.90
9371;DHT22;4725;48.384;8.984;2023-02-01T01:44:58;2.40;99.90
9371;DHT22;4725;48.384;8.984;2023-02-01T01:47:26;2.40;99.90
9371;DHT22;4725;48.384;8.984;2023-02-01T01:49:54;2.40;99.90
9371;DHT22;4725;48.384;8.984;2023-02-01T01:52:21;2.50;99.90
9371;DHT22;4725;48.384;8.984;2023-02-01T01:54:51;2.50;99.90
9371;DHT22;4725;48.384;8.984;2023-02-01T01:57:23;2.50;99.90
9371;DHT22;4725;48.384;8.984;2023-02-01T01:59:58;2.50;99.90
9371;DHT22;4725;48.384;8.984;2023-02-01T02:02:26;2.50;99.90
9371;DHT22;4725;48.384;8.984;2023-02-01T02:04:53;2.50;99.90
9371;DHT22;4725;48.384;8.984;2023-02-01T02:07:23;2.50;99.90
9371;DHT22;4725;48.384;8.984;2023-02-01T02:09:53;2.50;99.90
9371;DHT22;4725;48.384;8.984;2023-02-01T02:12:20;2.50;99.90
9371;DHT22;4725;48.384;8.984;2023-02-01T02:14:47;2.50;99.90
9371;DHT22;4725;48.384;8.984;2023-02-01T02:17:24;2.60;99.90
9371;DHT22;4725;48.384;8.984;2023-02-01T02:20:21;2.50;99.90
9371;DHT22;4725;48.384;8.984;2023-02-01T02:26:32;2.60;99.90
9371;DHT22;4725;48.384;8.984;2023-02-01T02:29:37;2.60;99.90
9371;DHT22;4725;48.384;8.984;2023-02-01T02:32:33;2.50;99.90
9371;DHT22;4725;48.384;8.984;2023-02-01T02:35:12;2.60;99.90
9371;DHT22;4725;48.384;8.984;2023-02-01T02:37:48;2.50;99.90
9371;DHT22;4725;48.384;8.984;2023-02-01T02:40:25;2.50;99.90
9371;DHT22;4725;48.384;8.984;2023-02-01T02:43:02;2.60;99.90
9371;DHT22;4725;48.384;8.984;2023-02-01T02:45:53;2.60;99.90
9371;DHT22;4725;48.384;8.984;2023-02-01T02:48:44;2.60;99.90
9371;DHT22;4725;48.384;8.984;2023-02-01T02:51:17;2.50;99.90
9371;DHT22;4725;48.384;8.984;2023-02-01T02:54:07;2.60;99.90
9371;DHT22;4725;48.384;8.984;2023-02-01T02:56:53;2.60;99.90
9371;DHT22;4725;48.384;8.984;2023-02-01T02:59:40;2.60;99.90
9371;DHT22;4725;48.384;8.984;2023-02-01T03:02:26;2.60;99.90
9371;DHT22;4725;48.384;8.984;2023-02-01T03:05:12;2.60;99.90
9371;DHT22;4725;48.384;8.984;2023-02-01T03:07:59;2.70;99.90
9371;DHT22;4725;48.384;8.984;2023-02-01T03:10:37;2.70;99.90
9371;DHT22;4725;48.384;8.984;2023-02-01T03:13:06;2.60;99.90
9371;DHT22;4725;48.384;8.984;2023-02-01T03:15:37;2.60;99.90
9371;DHT22;4725;48.384;8.984;2023-02-01T03:18:11;2.60;99.90
9371;DHT22;4725;48.384;8.984;2023-02-01T03:20:42;2.60;99.90
9371;DHT22;4725;48.384;8.984;2023-02-01T03:23:12;2.60;99.90
9371;DHT22;4725;48.384;8.984;2023-02-01T03:25:41;2.50;99.90
9371;DHT22;4725;48.384;8.984;2023-02-01T03:28:09;2.60;99.90
9371;DHT22;4725;48.384;8.984;2023-02-01T03:30:38;2.60;99.90
9371;DHT22;4725;48.384;8.984;2023-02-01T03:33:09;2.50;99.90
9371;DHT22;4725;48.384;8.984;2023-02-01T03:35:43;2.60;99.90
9371;DHT22;4725;48.384;8.984;2023-02-01T03:38:19;5.30;99.90
9371;DHT22;4725;48.384;8.984;2023-02-01T03:40:52;2.50;99.90
9371;DHT22;4725;48.384;8.984;2023-02-01T03:43:21;2.50;99.90
9371;DHT22;4725;48.384;8.984;2023-02-01T03:45:52;2.50;99.90
9371;DHT22;4725;48.384;8.984;2023-02-01T03:48:22;2.50;99.90
9371;DHT22;4725;48.384;8.984;2023-02-01T03:50:53;2.40;99.90
9371;DHT22;4725;48.384;8.984;2023-02-01T03:53:23;2.40;99.90
9371;DHT22;4725;48.384;8.984;2023-02-01T03:55:52;2.40;99.90
9371;DHT22;4725;48.384;8.984;2023-02-01T03:58:22;2.30;99.90
9371;DHT22;4725;48.384;8.984;2023-02-01T04:00:51;2.30;99.90
9371;DHT22;4725;48.384;8.984;2023-02-01T04:03:18;2.20;99.90
9371;DHT22;4725;48.384;8.984;2023-02-01T04:05:47;2.20;99.90
9371;DHT22;4725;48.384;8.984;2023-02-01T04:08:14;2.20;99.90
9371;DHT22;4725;48.384;8.984;2023-02-01T04:10:42;2.20;99.90
9371;DHT22;4725;48.384;8.984;2023-02-01T04:13:09;2.20;99.90
9371;DHT22;4725;48.384;8.984;2023-02-01T04:15:37;2.20;99.90
9371;DHT22;4725;48.384;8.984;2023-02-01T04:18:04;2.30;99.90
9371;DHT22;4725;48.384;8.984;2023-02-01T04:20:31;2.30;99.90
9371;DHT22;4725;48.384;8.984;2023-02-01T04:22:58;2.20;99.90
9371;DHT22;4725;48.384;8.984;2023-02-01T04:25:27;2.30;99.90
9371;DHT22;4725;48.384;8.984;2023-02-01T04:27:56;2.20;99.90
9371;DHT22;4725;48.384;8.984;2023-02-01T04:30:23;2.20;99.90
9371;DHT22;4725;48.384;8.984;2023-02-01T04:32:50;2.20;99.90
9371;DHT22;4725;48.384;8.984;2023-02-01T04:35:17;2.30;99.90
9371;DHT22;4725;48.384;8.984;2023-02-01T04:37:44;2.40;99.90
9371;DHT22;4725;48.384;8.984;2023-02-01T04:40:11;2.30;99.90
9371;DHT22;4725;48.384;8.984;2023-02-01T04:42:38;2.30;99.90
9371;DHT22;4725;48.384;8.984;2023-02-01T04:45:08;2.30;99.90
9371;DHT22;4725;48.384;8.984;2023-02-01T04:47:35;2.30;99.90
9371;DHT22;4725;48.384;8.984;2023-02-01T04:50:02;2.40;99.90
9371;DHT22;4725;48.384;8.984;2023-02-01T04:52:29;2.40;99.90
9371;DHT22;4725;48.384;8.984;2023-02-01T04:54:55;2.40;99.90
9371;DHT22;4725;48.384;8.984;2023-02-01T04:57:25;2.40;99.90
9371;DHT22;4725;48.384;8.984;2023-02-01T04:59:52;2.50;99.90
9371;DHT22;4725;48.384;8.984;2023-02-01T05:02:20;2.40;99.90
9371;DHT22;4725;48.384;8.984;2023-02-01T05:04:47;2.40;99.90
9371;DHT22;4725;48.384;8.984;2023-02-01T05:07:14;2.50;99.90
9371;DHT22;4725;48.384;8.984;2023-02-01T05:09:41;2.50;99.90
9371;DHT22;4725;48.384;8.984;2023-02-01T05:12:08;2.40;99.90
9371;DHT22;4725;48.384;8.984;2023-02-01T05:17:23;2.40;99.90
9371;DHT22;4725;48.384;8.984;2023-02-01T05:19:50;2.40;99.90
9371;DHT22;4725;48.384;8.984;2023-02-01T05:22:17;2.40;99.90
9371;DHT22;4725;48.384;8.984;2023-02-01T05:24:44;2.40;99.90
9371;DHT22;4725;48.384;8.984;2023-02-01T05:27:11;2.30;99.90
9371;DHT22;4725;48.384;8.984;2023-02-01T05:29:38;2.40;99.90
9371;DHT22;4725;48.384;8.984;2023-02-01T05:32:05;2.40;99.90
9371;DHT22;4725;48.384;8.984;2023-02-01T05:34:33;2.40;99.90
9371;DHT22;4725;48.384;8.984;2023-02-01T05:37:00;2.40;99.90
9371;DHT22;4725;48.384;8.984;2023-02-01T05:39:27;2.50;99.90
9371;DHT22;4725;48.384;8.984;2023-02-01T05:41:54;2.50;99.90
9371;DHT22;4725;48.384;8.984;2023-02-01T05:44:21;2.60;99.90
9371;DHT22;4725;48.384;8.984;2023-02-01T05:46:48;2.60;99.90
9371;DHT22;4725;48.384;8.984;2023-02-01T05:49:14;2.60;99.90
9371;DHT22;4725;48.384;8.984;2023-02-01T05:51:43;2.60;99.90
9371;DHT22;4725;48.384;8.984;2023-02-01T05:54:10;2.60;99.90
9371;DHT22;4725;48.384;8.984;2023-02-01T05:56:37;2.60;99.90
9371;DHT22;4725;48.384;8.984;2023-02-01T05:59:04;2.60;99.90
9371;DHT22;4725;48.384;8.984;2023-02-01T06:01:30;2.60;99.90
9371;DHT22;4725;48.384;8.984;2023-02-01T06:03:57;2.60;99.90
9371;DHT22;4725;48.384;8.984;2023-02-01T06:06:24;2.50;99.90
9371;DHT22;4725;48.384;8.984;2023-02-01T06:08:52;2.60;99.90
9371;DHT22;4725;48.384;8.984;2023-02-01T06:11:19;2.50;99.90
9371;DHT22;4725;48.384;8.984;2023-02-01T06:13:46;2.60;99.90
9371;DHT22;4725;48.384;8.984;2023-02-01T06:18:41;2.50;99.90
9371;DHT22;4725;48.384;8.984;2023-02-01T06:21:08;2.60;99.90
9371;DHT22;4725;48.384;8.984;2023-02-01T06:23:35;2.50;99.90
9371;DHT22;4725;48.384;8.984;2023-02-01T06:26:06;2.50;99.90
9371;DHT22;4725;48.384;8.984;2023-02-01T06:28:33;2.50;99.90
9371;DHT22;4725;48.384;8.984;2023-02-01T06:31:03;2.50;99.90
9371;DHT22;4725;48.384;8.984;2023-02-01T06:33:32;2.50;99.90
9371;DHT22;4725;48.384;8.984;2023-02-01T06:36:00;2.60;99.90
9371;DHT22;4725;48.384;8.984;2023-02-01T06:38:29;2.60;99.90
9371;DHT22;4725;48.384;8.984;2023-02-01T06:40:57;2.60;99.90
9371;DHT22;4725;48.384;8.984;2023-02-01T06:43:26;2.80;99.90
9371;DHT22;4725;48.384;8.984;2023-02-01T06:45:58;2.80;99.90
9371;DHT22;4725;48.384;8.984;2023-02-01T06:48:25;2.70;99.90
9371;DHT22;4725;48.384;8.984;2023-02-01T06:50:52;2.80;99.90
9371;DHT22;4725;48.384;8.984;2023-02-01T06:53:19;2.80;99.90
9371;DHT22;4725;48.384;8.984;2023-02-01T06:55:52;2.80;99.90
9371;DHT22;4725;48.384;8.984;2023-02-01T06:58:19;2.70;99.90
9371;DHT22;4725;48.384;8.984;2023-02-01T07:00:48;2.70;99.90
9371;DHT22;4725;48.384;8.984;2023-02-01T07:03:15;2.60;99.90
9371;DHT22;4725;48.384;8.984;2023-02-01T07:05:41;2.70;99.90
9371;DHT22;4725;48.384;8.984;2023-02-01T07:10:36;2.70;99.90
9371;DHT22;4725;48.384;8.984;2023-02-01T07:13:03;2.70;99.90
9371;DHT22;4725;48.384;8.984;2023-02-01T07:15:30;2.60;99.90
9371;DHT22;4725;48.384;8.984;2023-02-01T07:17:58;2.60;99.90
9371;DHT22;4725;48.384;8.984;2023-02-01T07:20:25;2.60;99.90
9371;DHT22;4725;48.384;8.984;2023-02-01T07:22:55;2.60;99.90
9371;DHT22;4725;48.384;8.984;2023-02-01T07:25:22;2.60;99.90
9371;DHT22;4725;48.384;8.984;2023-02-01T07:27:49;2.60;99.90
9371;DHT22;4725;48.384;8.984;2023-02-01T07:30:16;2.60;99.90
9371;DHT22;4725;48.384;8.984;2023-02-01T07:32:43;2.60;99.90
9371;DHT22;4725;48.384;8.984;2023-02-01T07:35:11;2.60;99.90
9371;DHT22;4725;48.384;8.984;2023-02-01T07:37:39;0.60;99.90
9371;DHT22;4725;48.384;8.984;2023-02-01T07:40:07;2.50;99.90
9371;DHT22;4725;48.384;8.984;2023-02-01T07:42:34;2.50;99.90
9371;DHT22;4725;48.384;8.984;2023-02-01T07:45:01;2.50;99.90
9371;DHT22;4725;48.384;8.984;2023-02-01T07:47:29;2.60;99.90
9371;DHT22;4725;48.384;8.984;2023-02-01T07:49:56;2.60;99.90
9371;DHT22;4725;48.384;8.984;2023-02-01T07:52:24;2.70;99.90
9371;DHT22;4725;48.384;8.984;2023-02-01T07:54:53;2.70;99.90
9371;DHT22;4725;48.384;8.984;2023-02-01T07:57:20;2.70;99.90
9371;DHT22;4725;48.384;8.984;2023-02-01T07:59:47;2.70;99.90
9371;DHT22;4725;48.384;8.984;2023-02-01T08:04:59;2.80;99.90
9371;DHT22;4725;48.384;8.984;2023-02-01T08:07:27;2.80;99.90
9371;DHT22;4725;48.384;8.984;2023-02-01T08:09:54;2.80;99.90
9371;DHT22;4725;48.384;8.984;2023-02-01T08:12:21;2.80;99.90
9371;DHT22;4725;48.384;8.984;2023-02-01T08:14:48;2.70;99.90
9371;DHT22;4725;48.384;8.984;2023-02-01T08:17:14;2.70;99.90
9371;DHT22;4725;48.384;8.984;2023-02-01T08:19:41;2.80;99.90
9371;DHT22;4725;48.384;8.984;2023-02-01T08:22:08;2.80;99.90
9371;DHT22;4725;48.384;8.984;2023-02-01T08:24:37;2.80;99.90
9371;DHT22;4725;48.384;8.984;2023-02-01T08:27:06;2.80;99.90
9371;DHT22;4725;48.384;8.984;2023-02-01T08:29:32;2.90;99.90
9371;DHT22;4725;48.384;8.984;2023-02-01T08:31:59;3.00;99.90
9371;DHT22;4725;48.384;8.984;2023-02-01T08:34:26;3.10;99.90
9371;DHT22;4725;48.384;8.984;2023-02-01T08:36:53;3.10;99.90
9371;DHT22;4725;48.384;8.984;2023-02-01T08:39:24;3.10;99.90
9371;DHT22;4725;48.384;8.984;2023-02-01T08:41:52;3.10;99.90
9371;DHT22;4725;48.384;8.984;2023-02-01T08:44:33;3.10;99.90
9371;DHT22;4725;48.384;8.984;2023-02-01T08:47:00;3.10;99.90
9371;DHT22;4725;48.384;8.984;2023-02-01T08:49:27;3.20;99.90
9371;DHT22;4725;48.384;8.984;2023-02-01T08:51:54;3.20;99.90
9371;DHT22;4725;48.384;8.984;2023-02-01T08:54:21;3.20;99.90
9371;DHT22;4725;48.384;8.984;2023-02-01T08:56:48;3.30;99.90
9371;DHT22;4725;48.384;8.984;2023-02-01T08:59:16;3.30;99.90
9371;DHT22;4725;48.384;8.984;2023-02-01T09:04:10;3.30;99.90
9371;DHT22;4725;48.384;8.984;2023-02-01T09:06:40;3.30;99.90
9371;DHT22;4725;48.384;8.984;2023-02-01T09:09:07;3.40;99.90
9371;DHT22;4725;48.384;8.984;2023-02-01T09:11:34;3.30;99.90
9371;DHT22;4725;48.384;8.984;2023-02-01T09:14:01;3.30;99.90
9371;DHT22;4725;48.384;8.984;2023-02-01T09:16:29;3.30;99.90
9371;DHT22;4725;48.384;8.984;2023-02-01T09:18:56;3.30;99.90
9371;DHT22;4725;48.384;8.984;2023-02-01T09:21:23;3.30;99.90
9371;DHT22;4725;48.384;8.984;2023-02-01T09:23:50;3.30;99.90
9371;DHT22;4725;48.384;8.984;2023-02-01T09:26:17;3.30;99.90
9371;DHT22;4725;48.384;8.984;2023-02-01T09:28:44;3.40;99.90
9371;DHT22;4725;48.384;8.984;2023-02-01T09:31:11;3.50;99.90
9371;DHT22;4725;48.384;8.984;2023-02-01T09:33:39;3.70;99.90
9371;DHT22;4725;48.384;8.984;2023-02-01T09:36:07;3.80;99.90
9371;DHT22;4725;48.384;8.984;2023-02-01T09:38:34;3.90;99.90
9371;DHT22;4725;48.384;8.984;2023-02-01T09:41:01;3.80;99.90
9371;DHT22;4725;48.384;8.984;2023-02-01T09:43:37;3.60;99.90
9371;DHT22;4725;48.384;8.984;2023-02-01T09:46:18;3.70;99.90
9371;DHT22;4725;48.384;8.984;2023-02-01T09:48:49;3.70;99.90
9371;DHT22;4725;48.384;8.984;2023-02-01T09:51:18;3.70;99.90
9371;DHT22;4725;48.384;8.984;2023-02-01T09:53:55;3.60;99.90
9371;DHT22;4725;48.384;8.984;2023-02-01T09:56:27;3.60;99.90
9371;DHT22;4725;48.384;8.984;2023-02-01T09:59:01;3.60;99.90
9371;DHT22;4725;48.384;8.984;2023-02-01T10:01:31;3.50;99.90
9371;DHT22;4725;48.384;8.984;2023-02-01T10:04:03;3.50;99.90
9371;DHT22;4725;48.384;8.984;2023-02-01T10:06:41;3.60;99.90
9371;DHT22;4725;48.384;8.984;2023-02-01T10:09:20;3.70;99.90
9371;DHT22;4725;48.384;8.984;2023-02-01T10:15:04;3.90;99.90
9371;DHT22;4725;48.384;8.984;2023-02-01T10:17:47;3.80;99.90
9371;DHT22;4725;48.384;8.984;2023-02-01T10:20:22;3.90;99.90
9371;DHT22;4725;48.384;8.984;2023-02-01T10:23:00;4.10;99.90
9371;DHT22;4725;48.384;8.984;2023-02-01T10:25:36;4.20;99.90
9371;DHT22;4725;48.384;8.984;2023-02-01T10:28:04;4.20;99.90
9371;DHT22;4725;48.384;8.984;2023-02-01T10:30:37;4.40;99.90
9371;DHT22;4725;48.384;8.984;2023-02-01T10:33:15;4.50;99.90
9371;DHT22;4725;48.384;8.984;2023-02-01T10:35:45;4.40;99.90
9371;DHT22;4725;48.384;8.984;2023-02-01T10:38:24;4.40;99.90
9371;DHT22;4725;48.384;8.984;2023-02-01T10:40:53;4.30;99.90
9371;DHT22;4725;48.384;8.984;2023-02-01T10:43:21;4.30;99.90
9371;DHT22;4725;48.384;8.984;2023-02-01T10:45:48;4.30;99.90
9371;DHT22;4725;48.384;8.984;2023-02-01T10:48:15;4.30;99.90
9371;DHT22;4725;48.384;8.984;2023-02-01T10:50:51;4.40;99.90
9371;DHT22;4725;48.384;8.984;2023-02-01T10:53:23;4.40;99.90
9371;DHT22;4725;48.384;8.984;2023-02-01T10:55:52;4.50;99.90
9371;DHT22;4725;48.384;8.984;2023-02-01T10:58:25;3.80;99.90
9371;DHT22;4725;48.384;8.984;2023-02-01T11:00:54;4.60;99.90
9371;DHT22;4725;48.384;8.984;2023-02-01T11:03:34;4.50;99.90
9371;DHT22;4725;48.384;8.984;2023-02-01T11:06:17;4.60;99.90
9371;DHT22;4725;48.384;8.984;2023-02-01T11:08:48;4.70;99.90
9371;DHT22;4725;48.384;8.984;2023-02-01T11:11:15;4.70;99.90
9371;DHT22;4725;48.384;8.984;2023-02-01T11:13:42;4.60;99.90
9371;DHT22;4725;48.384;8.984;2023-02-01T11:16:13;4.70;99.90
9371;DHT22;4725;48.384;8.984;2023-02-01T11:18:41;4.60;99.90
9371;DHT22;4725;48.384;8.984;2023-02-01T11:21:10;4.40;99.90
9371;DHT22;4725;48.384;8.984;2023-02-01T11:23:42;4.50;99.90
9371;DHT22;4725;48.384;8.984;2023-02-01T11:26:13;4.40;99.90
9371;DHT22;4725;48.384;8.984;2023-02-01T11:28:52;4.50;99.90
9371;DHT22;4725;48.384;8.984;2023-02-01T11:31:19;4.30;99.90
9371;DHT22;4725;48.384;8.984;2023-02-01T11:33:50;4.30;99.90
9371;DHT22;4725;48.384;8.984;2023-02-01T11:36:23;4.20;99.90
9371;DHT22;4725;48.384;8.984;2023-02-01T11:38:54;4.10;99.90
9371;DHT22;4725;48.384;8.984;2023-02-01T11:41:23;3.90;99.90
9371;DHT22;4725;48.384;8.984;2023-02-01T11:43:53;3.90;99.90
9371;DHT22;4725;48.384;8.984;2023-02-01T11:46:28;3.90;99.90
9371;DHT22;4725;48.384;8.984;2023-02-01T11:48:56;4.00;99.90
9371;DHT22;4725;48.384;8.984;2023-02-01T11:51:43;4.10;99.90
9371;DHT22;4725;48.384;8.984;2023-02-01T11:54:24;4.10;99.90
9371;DHT22;4725;48.384;8.984;2023-02-01T11:57:04;4.10;99.90
9371;DHT22;4725;48.384;8.984;2023-02-01T11:59:49;4.10;99.90
9371;DHT22;4725;48.384;8.984;2023-02-01T12:03:01;4.10;99.90
9371;DHT22;4725;48.384;8.984;2023-02-01T12:05:36;4.10;99.90
9371;DHT22;4725;48.384;8.984;2023-02-01T12:11:11;4.10;99.90
9371;DHT22;4725;48.384;8.984;2023-02-01T12:13:48;4.10;99.90
9371;DHT22;4725;48.384;8.984;2023-02-01T12:16:26;4.10;99.90
9371;DHT22;4725;48.384;8.984;2023-02-01T12:19:09;4.10;99.90
9371;DHT22;4725;48.384;8.984;2023-02-01T12:21:49;4.20;99.90
9371;DHT22;4725;48.384;8.984;2023-02-01T12:24:46;4.10;99.90
9371;DHT22;4725;48.384;8.984;2023-02-01T12:27:35;4.00;99.90
9371;DHT22;4725;48.384;8.984;2023-02-01T12:30:30;4.00;99.90
9371;DHT22;4725;48.384;8.984;2023-02-01T12:33:04;4.00;99.90
9371;DHT22;4725;48.384;8.984;2023-02-01T12:35:46;4.00;99.90
9371;DHT22;4725;48.384;8.984;2023-02-01T12:41:25;3.90;99.90
9371;DHT22;4725;48.384;8.984;2023-02-01T12:43:56;3.90;99.90
9371;DHT22;4725;48.384;8.984;2023-02-01T12:46:29;3.90;99.90
9371;DHT22;4725;48.384;8.984;2023-02-01T12:49:00;3.80;99.90
9371;DHT22;4725;48.384;8.984;2023-02-01T12:51:32;3.80;99.90
9371;DHT22;4725;48.384;8.984;2023-02-01T12:54:03;3.70;99.90
9371;DHT22;4725;48.384;8.984;2023-02-01T12:56:38;3.80;99.90
9371;DHT22;4725;48.384;8.984;2023-02-01T12:59:20;3.80;99.90
9371;DHT22;4725;48.384;8.984;2023-02-01T13:01:54;3.80;99.90
9371;DHT22;4725;48.384;8.984;2023-02-01T13:04:29;3.80;99.90
9371;DHT22;4725;48.384;8.984;2023-02-01T13:07:02;3.80;99.90
9371;DHT22;4725;48.384;8.984;2023-02-01T13:09:36;3.80;99.90
9371;DHT22;4725;48.384;8.984;2023-02-01T13:12:11;3.90;99.90
9371;DHT22;4725;48.384;8.984;2023-02-01T13:14:43;3.90;99.90
9371;DHT22;4725;48.384;8.984;2023-02-01T13:17:15;4.00;99.90
9371;DHT22;4725;48.384;8.984;2023-02-01T13:19:45;4.00;99.90
9371;DHT22;4725;48.384;8.984;2023-02-01T13:22:19;4.00;99.90
9371;DHT22;4725;48.384;8.984;2023-02-01T13:24:50;3.90;99.90
9371;DHT22;4725;48.384;8.984;2023-02-01T13:27:19;3.90;99.90
9371;DHT22;4725;48.384;8.984;2023-02-01T13:29:52;1.50;99.90
9371;DHT22;4725;48.384;8.984;2023-02-01T13:32:32;3.90;99.90
9371;DHT22;4725;48.384;8.984;2023-02-01T13:35:26;4.00;99.90
9371;DHT22;4725;48.384;8.984;2023-02-01T13:38:15;3.90;99.90
9371;DHT22;4725;48.384;8.984;2023-02-01T13:40:52;3.90;99.90
9371;DHT22;4725;48.384;8.984;2023-02-01T13:43:27;3.90;99.90
9371;DHT22;4725;48.384;8.984;2023-02-01T13:45:56;3.80;99.90
9371;DHT22;4725;48.384;8.984;2023-02-01T13:48:28;3.80;99.90
9371;DHT22;4725;48.384;8.984;2023-02-01T13:50:57;3.80;99.90
9371;DHT22;4725;48.384;8.984;2023-02-01T13:53:28;3.80;99.90
9371;DHT22;4725;48.384;8.984;2023-02-01T13:55:58;3.90;99.90
9371;DHT22;4725;48.384;8.984;2023-02-01T13:58:37;3.80;99.90
9371;DHT22;4725;48.384;8.984;2023-02-01T14:04:45;3.70;99.90
9371;DHT22;4725;48.384;8.984;2023-02-01T14:07:19;3.80;99.90
9371;DHT22;4725;48.384;8.984;2023-02-01T14:09:46;3.80;99.90
9371;DHT22;4725;48.384;8.984;2023-02-01T14:15:24;3.80;99.90
9371;DHT22;4725;48.384;8.984;2023-02-01T14:17:51;3.80;99.90
9371;DHT22;4725;48.384;8.984;2023-02-01T14:20:43;3.80;99.90
9371;DHT22;4725;48.384;8.984;2023-02-01T14:23:28;3.90;99.90
9371;DHT22;4725;48.384;8.984;2023-02-01T14:26:11;3.90;99.90
9371;DHT22;4725;48.384;8.984;2023-02-01T14:28:53;3.90;99.90
9371;DHT22;4725;48.384;8.984;2023-02-01T14:31:35;3.90;99.90
9371;DHT22;4725;48.384;8.984;2023-02-01T14:34:13;3.90;99.90
9371;DHT22;4725;48.384;8.984;2023-02-01T14:36:45;3.90;99.90
9371;DHT22;4725;48.384;8.984;2023-02-01T14:39:31;3.90;99.90
9371;DHT22;4725;48.384;8.984;2023-02-01T14:42:02;3.80;99.90
9371;DHT22;4725;48.384;8.984;2023-02-01T14:44:33;3.80;99.90
9371;DHT22;4725;48.384;8.984;2023-02-01T14:47:29;3.90;99.90
9371;DHT22;4725;48.384;8.984;2023-02-01T14:53:20;3.90;99.90
9371;DHT22;4725;48.384;8.984;2023-02-01T14:55:51;3.90;99.90
9371;DHT22;4725;48.384;8.984;2023-02-01T14:58:31;3.90;99.90
9371;DHT22;4725;48.384;8.984;2023-02-01T15:01:00;3.90;99.90
9371;DHT22;4725;48.384;8.984;2023-02-01T15:03:45;3.90;99.90
9371;DHT22;4725;48.384;8.984;2023-02-01T15:06:24;3.90;99.90
9371;DHT22;4725;48.384;8.984;2023-02-01T15:08:55;3.90;99.90
9371;DHT22;4725;48.384;8.984;2023-02-01T15:11:22;3.90;99.90
9371;DHT22;4725;48.384;8.984;2023-02-01T15:13:52;4.00;99.90
9371;DHT22;4725;48.384;8.984;2023-02-01T15:16:22;3.90;99.90
9371;DHT22;4725;48.384;8.984;2023-02-01T15:18:50;3.90;99.90
9371;DHT22;4725;48.384;8.984;2023-02-01T15:21:42;3.90;99.90
9371;DHT22;4725;48.384;8.984;2023-02-01T15:24:11;3.90;99.90
9371;DHT22;4725;48.384;8.984;2023-02-01T15:29:08;3.90;99.90
9371;DHT22;4725;48.384;8.984;2023-02-01T15:31:38;3.90;99.90
9371;DHT22;4725;48.384;8.984;2023-02-01T15:34:07;3.90;99.90
9371;DHT22;4725;48.384;8.984;2023-02-01T15:36:34;3.90;99.90
9371;DHT22;4725;48.384;8.984;2023-02-01T15:39:14;3.90;99.90
9371;DHT22;4725;48.384;8.984;2023-02-01T15:41:47;3.90;99.90
9371;DHT22;4725;48.384;8.984;2023-02-01T15:44:19;3.90;99.90
9371;DHT22;4725;48.384;8.984;2023-02-01T15:46:48;3.90;99.90
9371;DHT22;4725;48.384;8.984;2023-02-01T15:49:22;3.90;99.90
9371;DHT22;4725;48.384;8.984;2023-02-01T15:51:50;3.90;99.90
9371;DHT22;4725;48.384;8.984;2023-02-01T15:54:20;3.90;99.90
9371;DHT22;4725;48.384;8.984;2023-02-01T15:56:51;3.90;99.90
9371;DHT22;4725;48.384;8.984;2023-02-01T15:59:21;3.90;99.90
9371;DHT22;4725;48.384;8.984;2023-02-01T16:01:49;3.90;99.90
9371;DHT22;4725;48.384;8.984;2023-02-01T16:04:20;3.80;99.90
9371;DHT22;4725;48.384;8.984;2023-02-01T16:06:50;3.80;99.90
9371;DHT22;4725;48.384;8.984;2023-02-01T16:11:53;3.90;99.90
9371;DHT22;4725;48.384;8.984;2023-02-01T16:14:21;3.80;99.90
9371;DHT22;4725;48.384;8.984;2023-02-01T16:16:48;3.80;99.90
9371;DHT22;4725;48.384;8.984;2023-02-01T16:19:17;3.70;99.90
9371;DHT22;4725;48.384;8.984;2023-02-01T16:21:45;3.60;99.90
9371;DHT22;4725;48.384;8.984;2023-02-01T16:24:12;3.60;99.90
9371;DHT22;4725;48.384;8.984;2023-02-01T16:26:39;3.60;99.90
9371;DHT22;4725;48.384;8.984;2023-02-01T16:29:06;3.50;99.90
9371;DHT22;4725;48.384;8.984;2023-02-01T16:31:35;3.50;99.90
9371;DHT22;4725;48.384;8.984;2023-02-01T16:34:03;3.50;99.90
9371;DHT22;4725;48.384;8.984;2023-02-01T16:36:32;3.50;99.90
9371;DHT22;4725;48.384;8.984;2023-02-01T16:38:59;3.40;99.90
9371;DHT22;4725;48.384;8.984;2023-02-01T16:41:28;3.30;99.90
9371;DHT22;4725;48.384;8.984;2023-02-01T16:43:55;3.30;99.90
9371;DHT22;4725;48.384;8.984;2023-02-01T16:46:24;3.20;99.90
9371;DHT22;4725;48.384;8.984;2023-02-01T16:48:54;3.30;99.90
9371;DHT22;4725;48.384;8.984;2023-02-01T16:51:22;3.20;99.90
9371;DHT22;4725;48.384;8.984;2023-02-01T16:53:51;3.20;99.90
9371;DHT22;4725;48.384;8.984;2023-02-01T16:56:20;3.10;99.90
9371;DHT22;4725;48.384;8.984;2023-02-01T16:58:48;6.20;99.90
9371;DHT22;4725;48.384;8.984;2023-02-01T17:01:16;3.00;99.90
9371;DHT22;4725;48.384;8.984;2023-02-01T17:03:43;3.00;99.90
9371;DHT22;4725;48.384;8.984;2023-02-01T17:06:14;3.00;99.90
9371;DHT22;4725;48.384;8.984;2023-02-01T17:08:44;3.00;99.90
9371;DHT22;4725;48.384;8.984;2023-02-01T17:11:13;2.90;99.90
9371;DHT22;4725;48.384;8.984;2023-02-01T17:13:41;2.90;99.90
9371;DHT22;4725;48.384;8.984;2023-02-01T17:16:22;2.90;99.90
9371;DHT22;4725;48.384;8.984;2023-02-01T17:18:55;2.90;99.90
9371;DHT22;4725;48.384;8.984;2023-02-01T17:21:24;2.90;99.90
9371;DHT22;4725;48.384;8.984;2023-02-01T17:23:52;2.90;99.90